sensor_id;sensor_type;location;lat;lon;timestamp;P1;durP1;ratioP1;P2;durP2;ratioP2
72517;SDS011;60540;51.178;6.738;2024-03-08T00:01:14;14.35;;;7.90;;
72517;SDS011;60540;51.178;6.738;2024-03-08T00:04:00;14.25;;;7.60;;
72517;SDS011;60540;51.178;6.738;2024-03-08T00:06:44;15.48;;;8.32;;
72517;SDS011;60540;51.178;6.738;2024-03-08T00:09:30;15.00;;;8.05;;
72517;SDS011;60540;51.178;6.738;2024-03-08T00:12:14;15.48;;;7.82;;
72517;SDS011;60540;51.178;6.738;2024-03-08T00:14:58;13.85;;;7.63;;
72517;SDS011;60540;51.178;6.738;2024-03-08T00:17:43;13.63;;;7.55;;
72517;SDS011;60540;51.178;6.738;2024-03-08T00:20:28;12.88;;;6.95;;
72517;SDS011;60540;51.178;6.738;2024-03-08T00:23:12;14.50;;;7.80;;
72517;SDS011;60540;51.178;6.738;2024-03-08T00:25:57;14.20;;;7.72;;
72517;SDS011;60540;51.178;6.738;2024-03-08T00:28:41;15.05;;;8.55;;
72517;SDS011;60540;51.178;6.738;2024-03-08T00:31:25;14.68;;;8.07;;
72517;SDS011;60540;51.178;6.738;2024-03-08T00:34:09;16.20;;;8.15;;
72517;SDS011;60540;51.178;6.738;2024-03-08T00:36:55;14.10;;;7.90;;
72517;SDS011;60540;51.178;6.738;2024-03-08T00:39:39;17.88;;;9.70;;
72517;SDS011;60540;51.178;6.738;2024-03-08T00:42:24;15.30;;;8.20;;
72517;SDS011;60540;51.178;6.738;2024-03-08T00:45:08;19.90;;;8.70;;
72517;SDS011;60540;51.178;6.738;2024-03-08T00:47:54;16.30;;;8.88;;
72517;SDS011;60540;51.178;6.738;2024-03-08T00:50:38;16.73;;;8.35;;
72517;SDS011;60540;51.178;6.738;2024-03-08T00:53:23;20.48;;;8.60;;
72517;SDS011;60540;51.178;6.738;2024-03-08T00:56:10;14.50;;;8.45;;
72517;SDS011;60540;51.178;6.738;2024-03-08T00:58:54;15.02;;;8.73;;
72517;SDS011;60540;51.178;6.738;2024-03-08T01:01:38;16.67;;;8.50;;
72517;SDS011;60540;51.178;6.738;2024-03-08T01:07:09;16.35;;;7.25;;
72517;SDS011;60540;51.178;6.738;2024-03-08T01:09:54;14.40;;;7.53;;
72517;SDS011;60540;51.178;6.738;2024-03-08T01:12:38;14.55;;;8.00;;
72517;SDS011;60540;51.178;6.738;2024-03-08T01:15:23;16.40;;;8.73;;
72517;SDS011;60540;51.178;6.738;2024-03-08T01:18:07;16.92;;;8.38;;
72517;SDS011;60540;51.178;6.738;2024-03-08T01:20:52;15.73;;;8.35;;
72517;SDS011;60540;51.178;6.738;2024-03-08T01:23:36;13.63;;;8.05;;
72517;SDS011;60540;51.178;6.738;2024-03-08T01:26:21;17.42;;;9.15;;
72517;SDS011;60540;51.178;6.738;2024-03-08T01:29:05;15.52;;;8.57;;
72517;SDS011;60540;51.178;6.738;2024-03-08T01:31:50;17.88;;;8.60;;
72517;SDS011;60540;51.178;6.738;2024-03-08T01:37:19;16.33;;;7.65;;
72517;SDS011;60540;51.178;6.738;2024-03-08T01:40:04;14.77;;;8.60;;
72517;SDS011;60540;51.178;6.738;2024-03-08T01:42:49;14.70;;;8.52;;
72517;SDS011;60540;51.178;6.738;2024-03-08T01:45:33;16.00;;;8.40;;
72517;SDS011;60540;51.178;6.738;2024-03-08T01:48:18;17.38;;;8.82;;
72517;SDS011;60540;51.178;6.738;2024-03-08T01:51:02;18.10;;;9.07;;
72517;SDS011;60540;51.178;6.738;2024-03-08T01:53:47;15.95;;;8.90;;
72517;SDS011;60540;51.178;6.738;2024-03-08T01:56:32;17.90;;;9.23;;
72517;SDS011;60540;51.178;6.738;2024-03-08T01:59:16;17.00;;;8.07;;
72517;SDS011;60540;51.178;6.738;2024-03-08T02:02:02;16.83;;;8.88;;
72517;SDS011;60540;51.178;6.738;2024-03-08T02:04:47;18.27;;;8.57;;
72517;SDS011;60540;51.178;6.738;2024-03-08T02:07:31;18.05;;;7.78;;
72517;SDS011;60540;51.178;6.738;2024-03-08T02:10:15;18.77;;;8.55;;
72517;SDS011;60540;51.178;6.738;2024-03-08T02:13:01;14.95;;;8.38;;
72517;SDS011;60540;51.178;6.738;2024-03-08T02:18:36;17.45;;;8.48;;
72517;SDS011;60540;51.178;6.738;2024-03-08T02:21:20;16.17;;;8.50;;
72517;SDS011;60540;51.178;6.738;2024-03-08T02:24:04;16.80;;;9.35;;
72517;SDS011;60540;51.178;6.738;2024-03-08T02:26:49;16.40;;;8.93;;
72517;SDS011;60540;51.178;6.738;2024-03-08T02:29:33;16.60;;;8.43;;
72517;SDS011;60540;51.178;6.738;2024-03-08T02:32:18;15.98;;;7.90;;
72517;SDS011;60540;51.178;6.738;2024-03-08T02:35:02;17.17;;;8.95;;
72517;SDS011;60540;51.178;6.738;2024-03-08T02:37:47;16.33;;;8.48;;
72517;SDS011;60540;51.178;6.738;2024-03-08T02:40:31;17.02;;;8.48;;
72517;SDS011;60540;51.178;6.738;2024-03-08T02:43:16;20.17;;;9.52;;
72517;SDS011;60540;51.178;6.738;2024-03-08T02:46:05;16.77;;;8.00;;
72517;SDS011;60540;51.178;6.738;2024-03-08T02:48:49;15.20;;;8.30;;
72517;SDS011;60540;51.178;6.738;2024-03-08T02:51:34;16.85;;;8.52;;
72517;SDS011;60540;51.178;6.738;2024-03-08T02:54:20;15.60;;;8.75;;
72517;SDS011;60540;51.178;6.738;2024-03-08T02:57:04;19.17;;;8.90;;
72517;SDS011;60540;51.178;6.738;2024-03-08T02:59:48;16.85;;;8.73;;
72517;SDS011;60540;51.178;6.738;2024-03-08T03:02:33;16.55;;;8.30;;
72517;SDS011;60540;51.178;6.738;2024-03-08T03:05:17;17.08;;;9.20;;
72517;SDS011;60540;51.178;6.738;2024-03-08T03:08:02;17.60;;;9.90;;
72517;SDS011;60540;51.178;6.738;2024-03-08T03:10:48;20.27;;;8.43;;
72517;SDS011;60540;51.178;6.738;2024-03-08T03:13:32;19.05;;;9.13;;
72517;SDS011;60540;51.178;6.738;2024-03-08T03:16:18;16.17;;;9.10;;
72517;SDS011;60540;51.178;6.738;2024-03-08T03:19:05;16.80;;;7.40;;
72517;SDS011;60540;51.178;6.738;2024-03-08T03:21:49;17.23;;;8.82;;
72517;SDS011;60540;51.178;6.738;2024-03-08T03:24:33;16.70;;;8.52;;
72517;SDS011;60540;51.178;6.738;2024-03-08T03:27:18;17.85;;;9.30;;
72517;SDS011;60540;51.178;6.738;2024-03-08T03:30:04;16.73;;;7.72;;
72517;SDS011;60540;51.178;6.738;2024-03-08T03:33:07;18.50;;;8.57;;
72517;SDS011;60540;51.178;6.738;2024-03-08T03:35:51;18.52;;;9.23;;
72517;SDS011;60540;51.178;6.738;2024-03-08T03:38:36;15.93;;;8.23;;
72517;SDS011;60540;51.178;6.738;2024-03-08T03:41:20;18.17;;;9.10;;
72517;SDS011;60540;51.178;6.738;2024-03-08T03:44:04;18.55;;;9.05;;
72517;SDS011;60540;51.178;6.738;2024-03-08T03:46:51;18.20;;;8.77;;
72517;SDS011;60540;51.178;6.738;2024-03-08T03:49:36;19.60;;;8.30;;
72517;SDS011;60540;51.178;6.738;2024-03-08T03:52:20;19.60;;;9.23;;
72517;SDS011;60540;51.178;6.738;2024-03-08T03:55:04;15.43;;;8.20;;
72517;SDS011;60540;51.178;6.738;2024-03-08T03:57:48;16.42;;;8.65;;
72517;SDS011;60540;51.178;6.738;2024-03-08T04:00:32;17.67;;;9.13;;
72517;SDS011;60540;51.178;6.738;2024-03-08T04:03:16;15.18;;;7.93;;
72517;SDS011;60540;51.178;6.738;2024-03-08T04:06:01;16.63;;;8.38;;
72517;SDS011;60540;51.178;6.738;2024-03-08T04:08:46;18.08;;;8.52;;
72517;SDS011;60540;51.178;6.738;2024-03-08T04:11:30;15.95;;;8.07;;
72517;SDS011;60540;51.178;6.738;2024-03-08T04:14:14;17.48;;;8.63;;
72517;SDS011;60540;51.178;6.738;2024-03-08T04:16:59;18.05;;;8.32;;
72517;SDS011;60540;51.178;6.738;2024-03-08T04:19:43;16.38;;;8.63;;
72517;SDS011;60540;51.178;6.738;2024-03-08T04:22:27;18.88;;;8.82;;
72517;SDS011;60540;51.178;6.738;2024-03-08T04:25:12;17.15;;;8.93;;
72517;SDS011;60540;51.178;6.738;2024-03-08T04:27:56;18.20;;;9.35;;
72517;SDS011;60540;51.178;6.738;2024-03-08T04:30:40;17.20;;;8.45;;
72517;SDS011;60540;51.178;6.738;2024-03-08T04:33:25;16.58;;;8.27;;
72517;SDS011;60540;51.178;6.738;2024-03-08T04:36:09;17.33;;;8.30;;
72517;SDS011;60540;51.178;6.738;2024-03-08T04:38:57;16.15;;;8.23;;
72517;SDS011;60540;51.178;6.738;2024-03-08T04:41:42;17.08;;;8.35;;
72517;SDS011;60540;51.178;6.738;2024-03-08T04:47:11;15.75;;;7.38;;
72517;SDS011;60540;51.178;6.738;2024-03-08T04:49:56;17.25;;;8.77;;
72517;SDS011;60540;51.178;6.738;2024-03-08T04:52:40;18.23;;;9.13;;
72517;SDS011;60540;51.178;6.738;2024-03-08T04:55:25;18.30;;;8.65;;
72517;SDS011;60540;51.178;6.738;2024-03-08T04:58:09;18.08;;;8.23;;
72517;SDS011;60540;51.178;6.738;2024-03-08T05:00:54;16.40;;;8.48;;
72517;SDS011;60540;51.178;6.738;2024-03-08T05:03:38;16.80;;;8.38;;
72517;SDS011;60540;51.178;6.738;2024-03-08T05:06:23;20.35;;;8.32;;
72517;SDS011;60540;51.178;6.738;2024-03-08T05:09:07;16.67;;;8.35;;
72517;SDS011;60540;51.178;6.738;2024-03-08T05:12:01;17.38;;;8.60;;
72517;SDS011;60540;51.178;6.738;2024-03-08T05:14:45;18.17;;;8.57;;
72517;SDS011;60540;51.178;6.738;2024-03-08T05:17:33;18.08;;;7.90;;
72517;SDS011;60540;51.178;6.738;2024-03-08T05:20:17;18.95;;;8.50;;
72517;SDS011;60540;51.178;6.738;2024-03-08T05:23:03;16.65;;;8.80;;
72517;SDS011;60540;51.178;6.738;2024-03-08T05:25:48;18.73;;;9.23;;
72517;SDS011;60540;51.178;6.738;2024-03-08T05:28:33;17.77;;;8.85;;
72517;SDS011;60540;51.178;6.738;2024-03-08T05:31:20;18.58;;;9.05;;
72517;SDS011;60540;51.178;6.738;2024-03-08T05:34:06;16.70;;;8.60;;
72517;SDS011;60540;51.178;6.738;2024-03-08T05:36:53;17.30;;;8.25;;
72517;SDS011;60540;51.178;6.738;2024-03-08T05:39:38;18.38;;;8.90;;
72517;SDS011;60540;51.178;6.738;2024-03-08T05:42:22;17.88;;;9.02;;
72517;SDS011;60540;51.178;6.738;2024-03-08T05:45:06;16.77;;;8.27;;
72517;SDS011;60540;51.178;6.738;2024-03-08T05:47:51;19.63;;;8.88;;
72517;SDS011;60540;51.178;6.738;2024-03-08T05:50:36;18.85;;;8.43;;
72517;SDS011;60540;51.178;6.738;2024-03-08T05:53:20;17.33;;;9.00;;
72517;SDS011;60540;51.178;6.738;2024-03-08T05:56:05;19.95;;;9.02;;
72517;SDS011;60540;51.178;6.738;2024-03-08T05:58:50;19.10;;;8.65;;
72517;SDS011;60540;51.178;6.738;2024-03-08T06:01:34;18.65;;;8.73;;
72517;SDS011;60540;51.178;6.738;2024-03-08T06:04:19;18.70;;;7.90;;
72517;SDS011;60540;51.178;6.738;2024-03-08T06:07:04;17.92;;;9.45;;
72517;SDS011;60540;51.178;6.738;2024-03-08T06:09:48;17.45;;;8.70;;
72517;SDS011;60540;51.178;6.738;2024-03-08T06:12:33;19.23;;;9.63;;
72517;SDS011;60540;51.178;6.738;2024-03-08T06:15:20;17.40;;;8.23;;
72517;SDS011;60540;51.178;6.738;2024-03-08T06:18:05;23.08;;;8.90;;
72517;SDS011;60540;51.178;6.738;2024-03-08T06:20:49;19.33;;;9.25;;
72517;SDS011;60540;51.178;6.738;2024-03-08T06:23:34;18.23;;;9.05;;
72517;SDS011;60540;51.178;6.738;2024-03-08T06:26:22;21.25;;;9.57;;
72517;SDS011;60540;51.178;6.738;2024-03-08T06:29:06;16.77;;;8.85;;
72517;SDS011;60540;51.178;6.738;2024-03-08T06:31:50;16.13;;;8.10;;
72517;SDS011;60540;51.178;6.738;2024-03-08T06:34:34;18.00;;;9.35;;
72517;SDS011;60540;51.178;6.738;2024-03-08T06:37:18;19.77;;;9.55;;
72517;SDS011;60540;51.178;6.738;2024-03-08T06:40:05;20.25;;;9.63;;
72517;SDS011;60540;51.178;6.738;2024-03-08T06:42:51;19.77;;;8.55;;
72517;SDS011;60540;51.178;6.738;2024-03-08T06:45:36;24.42;;;9.15;;
72517;SDS011;60540;51.178;6.738;2024-03-08T06:48:21;22.00;;;9.13;;
72517;SDS011;60540;51.178;6.738;2024-03-08T06:51:06;17.45;;;8.90;;
72517;SDS011;60540;51.178;6.738;2024-03-08T06:53:50;20.08;;;8.77;;
72517;SDS011;60540;51.178;6.738;2024-03-08T06:56:36;18.38;;;9.00;;
72517;SDS011;60540;51.178;6.738;2024-03-08T06:59:20;21.77;;;9.23;;
72517;SDS011;60540;51.178;6.738;2024-03-08T07:02:06;18.88;;;8.95;;
72517;SDS011;60540;51.178;6.738;2024-03-08T07:04:53;18.23;;;8.45;;
72517;SDS011;60540;51.178;6.738;2024-03-08T07:07:37;20.92;;;9.60;;
72517;SDS011;60540;51.178;6.738;2024-03-08T07:10:22;19.58;;;10.60;;
72517;SDS011;60540;51.178;6.738;2024-03-08T07:13:08;19.95;;;8.65;;
72517;SDS011;60540;51.178;6.738;2024-03-08T07:15:52;17.20;;;8.90;;
72517;SDS011;60540;51.178;6.738;2024-03-08T07:18:36;21.80;;;9.10;;
72517;SDS011;60540;51.178;6.738;2024-03-08T07:21:23;21.55;;;9.68;;
72517;SDS011;60540;51.178;6.738;2024-03-08T07:24:08;16.75;;;8.18;;
72517;SDS011;60540;51.178;6.738;2024-03-08T07:27:01;17.67;;;9.60;;
72517;SDS011;60540;51.178;6.738;2024-03-08T07:29:48;17.42;;;8.85;;
72517;SDS011;60540;51.178;6.738;2024-03-08T07:32:32;19.35;;;8.73;;
72517;SDS011;60540;51.178;6.738;2024-03-08T07:35:18;23.10;;;10.00;;
72517;SDS011;60540;51.178;6.738;2024-03-08T07:38:05;17.50;;;9.27;;
72517;SDS011;60540;51.178;6.738;2024-03-08T07:40:51;21.13;;;8.80;;
72517;SDS011;60540;51.178;6.738;2024-03-08T07:43:35;19.58;;;9.35;;
72517;SDS011;60540;51.178;6.738;2024-03-08T07:46:20;18.15;;;8.52;;
72517;SDS011;60540;51.178;6.738;2024-03-08T07:49:04;19.42;;;9.93;;
72517;SDS011;60540;51.178;6.738;2024-03-08T07:51:49;20.73;;;9.32;;
72517;SDS011;60540;51.178;6.738;2024-03-08T07:54:33;18.90;;;9.25;;
72517;SDS011;60540;51.178;6.738;2024-03-08T07:57:19;20.45;;;10.20;;
72517;SDS011;60540;51.178;6.738;2024-03-08T08:00:07;17.65;;;9.43;;
72517;SDS011;60540;51.178;6.738;2024-03-08T08:02:52;20.50;;;8.82;;
72517;SDS011;60540;51.178;6.738;2024-03-08T08:05:37;18.85;;;8.93;;
72517;SDS011;60540;51.178;6.738;2024-03-08T08:08:22;17.25;;;9.02;;
72517;SDS011;60540;51.178;6.738;2024-03-08T08:11:06;20.00;;;9.15;;
72517;SDS011;60540;51.178;6.738;2024-03-08T08:13:53;18.58;;;8.85;;
72517;SDS011;60540;51.178;6.738;2024-03-08T08:16:38;19.58;;;8.40;;
72517;SDS011;60540;51.178;6.738;2024-03-08T08:19:25;19.13;;;8.38;;
72517;SDS011;60540;51.178;6.738;2024-03-08T08:22:11;18.25;;;9.23;;
72517;SDS011;60540;51.178;6.738;2024-03-08T08:24:55;18.10;;;8.25;;
72517;SDS011;60540;51.178;6.738;2024-03-08T08:27:39;18.15;;;9.45;;
72517;SDS011;60540;51.178;6.738;2024-03-08T08:30:24;16.83;;;9.05;;
72517;SDS011;60540;51.178;6.738;2024-03-08T08:33:08;18.13;;;8.63;;
72517;SDS011;60540;51.178;6.738;2024-03-08T08:35:53;17.77;;;8.00;;
72517;SDS011;60540;51.178;6.738;2024-03-08T08:38:37;17.20;;;7.65;;
72517;SDS011;60540;51.178;6.738;2024-03-08T08:41:22;20.42;;;8.55;;
72517;SDS011;60540;51.178;6.738;2024-03-08T08:44:06;16.50;;;7.63;;
72517;SDS011;60540;51.178;6.738;2024-03-08T08:46:52;19.55;;;7.88;;
72517;SDS011;60540;51.178;6.738;2024-03-08T08:49:37;17.92;;;7.93;;
72517;SDS011;60540;51.178;6.738;2024-03-08T08:52:21;18.17;;;8.32;;
72517;SDS011;60540;51.178;6.738;2024-03-08T08:55:07;16.02;;;8.77;;
72517;SDS011;60540;51.178;6.738;2024-03-08T08:57:52;18.67;;;8.82;;
72517;SDS011;60540;51.178;6.738;2024-03-08T09:00:36;15.95;;;7.82;;
72517;SDS011;60540;51.178;6.738;2024-03-08T09:03:21;20.05;;;8.50;;
72517;SDS011;60540;51.178;6.738;2024-03-08T09:06:07;13.93;;;7.55;;
72517;SDS011;60540;51.178;6.738;2024-03-08T09:08:54;14.45;;;7.68;;
72517;SDS011;60540;51.178;6.738;2024-03-08T09:11:38;14.65;;;7.88;;
72517;SDS011;60540;51.178;6.738;2024-03-08T09:14:26;13.75;;;7.22;;
72517;SDS011;60540;51.178;6.738;2024-03-08T09:17:10;17.23;;;7.40;;
72517;SDS011;60540;51.178;6.738;2024-03-08T09:19:54;18.73;;;8.00;;
72517;SDS011;60540;51.178;6.738;2024-03-08T09:22:38;14.90;;;7.50;;
72517;SDS011;60540;51.178;6.738;2024-03-08T09:25:24;16.60;;;7.68;;
72517;SDS011;60540;51.178;6.738;2024-03-08T09:28:09;15.77;;;7.78;;
72517;SDS011;60540;51.178;6.738;2024-03-08T09:30:56;18.33;;;8.05;;
72517;SDS011;60540;51.178;6.738;2024-03-08T09:33:41;13.80;;;7.00;;
72517;SDS011;60540;51.178;6.738;2024-03-08T09:36:26;16.38;;;7.95;;
72517;SDS011;60540;51.178;6.738;2024-03-08T09:39:11;15.90;;;7.80;;
72517;SDS011;60540;51.178;6.738;2024-03-08T09:42:01;15.02;;;7.32;;
72517;SDS011;60540;51.178;6.738;2024-03-08T09:44:45;14.35;;;6.95;;
72517;SDS011;60540;51.178;6.738;2024-03-08T09:47:30;15.30;;;7.30;;
72517;SDS011;60540;51.178;6.738;2024-03-08T09:50:17;16.60;;;7.28;;
72517;SDS011;60540;51.178;6.738;2024-03-08T09:53:01;14.52;;;7.75;;
72517;SDS011;60540;51.178;6.738;2024-03-08T09:55:46;14.10;;;6.88;;
72517;SDS011;60540;51.178;6.738;2024-03-08T09:58:33;19.33;;;8.25;;
72517;SDS011;60540;51.178;6.738;2024-03-08T10:01:17;13.93;;;7.53;;
72517;SDS011;60540;51.178;6.738;2024-03-08T10:06:46;14.25;;;7.05;;
72517;SDS011;60540;51.178;6.738;2024-03-08T10:09:31;14.63;;;6.35;;
72517;SDS011;60540;51.178;6.738;2024-03-08T10:12:15;13.65;;;7.70;;
72517;SDS011;60540;51.178;6.738;2024-03-08T10:15:01;15.00;;;6.60;;
72517;SDS011;60540;51.178;6.738;2024-03-08T10:17:45;14.93;;;7.60;;
72517;SDS011;60540;51.178;6.738;2024-03-08T10:20:33;16.95;;;7.57;;
72517;SDS011;60540;51.178;6.738;2024-03-08T10:23:17;13.23;;;6.68;;
72517;SDS011;60540;51.178;6.738;2024-03-08T10:26:20;11.52;;;7.13;;
72517;SDS011;60540;51.178;6.738;2024-03-08T10:29:05;11.77;;;6.78;;
72517;SDS011;60540;51.178;6.738;2024-03-08T10:31:50;12.38;;;7.32;;
72517;SDS011;60540;51.178;6.738;2024-03-08T10:34:35;13.40;;;7.00;;
72517;SDS011;60540;51.178;6.738;2024-03-08T10:37:21;14.20;;;7.13;;
72517;SDS011;60540;51.178;6.738;2024-03-08T10:40:06;13.85;;;6.63;;
72517;SDS011;60540;51.178;6.738;2024-03-08T10:42:58;13.40;;;6.65;;
72517;SDS011;60540;51.178;6.738;2024-03-08T10:45:43;15.05;;;7.22;;
72517;SDS011;60540;51.178;6.738;2024-03-08T10:48:29;10.63;;;6.05;;
72517;SDS011;60540;51.178;6.738;2024-03-08T10:51:17;12.15;;;7.28;;
72517;SDS011;60540;51.178;6.738;2024-03-08T10:54:03;13.43;;;7.00;;
72517;SDS011;60540;51.178;6.738;2024-03-08T10:56:47;13.70;;;6.32;;
72517;SDS011;60540;51.178;6.738;2024-03-08T10:59:33;10.82;;;5.55;;
72517;SDS011;60540;51.178;6.738;2024-03-08T11:02:17;12.77;;;5.97;;
72517;SDS011;60540;51.178;6.738;2024-03-08T11:05:03;12.15;;;6.05;;
72517;SDS011;60540;51.178;6.738;2024-03-08T11:07:49;10.85;;;5.88;;
72517;SDS011;60540;51.178;6.738;2024-03-08T11:10:34;12.93;;;6.13;;
72517;SDS011;60540;51.178;6.738;2024-03-08T11:21:58;11.52;;;5.68;;
72517;SDS011;60540;51.178;6.738;2024-03-08T11:24:46;11.27;;;5.65;;
72517;SDS011;60540;51.178;6.738;2024-03-08T11:27:30;11.68;;;5.57;;
72517;SDS011;60540;51.178;6.738;2024-03-08T11:30:15;11.35;;;5.57;;
72517;SDS011;60540;51.178;6.738;2024-03-08T11:33:11;13.70;;;6.43;;
72517;SDS011;60540;51.178;6.738;2024-03-08T11:38:55;9.73;;;5.78;;
72517;SDS011;60540;51.178;6.738;2024-03-08T11:41:41;10.43;;;5.43;;
72517;SDS011;60540;51.178;6.738;2024-03-08T11:44:29;11.68;;;6.18;;
72517;SDS011;60540;51.178;6.738;2024-03-08T11:47:15;10.40;;;5.70;;
72517;SDS011;60540;51.178;6.738;2024-03-08T11:50:00;10.98;;;5.72;;
72517;SDS011;60540;51.178;6.738;2024-03-08T11:52:47;8.55;;;5.00;;
72517;SDS011;60540;51.178;6.738;2024-03-08T11:55:33;11.15;;;5.78;;
72517;SDS011;60540;51.178;6.738;2024-03-08T11:58:19;12.55;;;5.75;;
72517;SDS011;60540;51.178;6.738;2024-03-08T12:01:04;11.02;;;5.43;;
72517;SDS011;60540;51.178;6.738;2024-03-08T12:03:56;11.48;;;5.80;;
72517;SDS011;60540;51.178;6.738;2024-03-08T12:06:44;10.27;;;5.45;;
72517;SDS011;60540;51.178;6.738;2024-03-08T12:09:31;10.48;;;6.05;;
72517;SDS011;60540;51.178;6.738;2024-03-08T12:12:16;10.90;;;6.05;;
72517;SDS011;60540;51.178;6.738;2024-03-08T12:15:00;9.85;;;5.32;;
72517;SDS011;60540;51.178;6.738;2024-03-08T12:17:44;11.25;;;5.95;;
72517;SDS011;60540;51.178;6.738;2024-03-08T12:20:31;9.90;;;5.53;;
72517;SDS011;60540;51.178;6.738;2024-03-08T12:23:16;10.75;;;5.57;;
72517;SDS011;60540;51.178;6.738;2024-03-08T12:26:13;9.93;;;5.57;;
72517;SDS011;60540;51.178;6.738;2024-03-08T12:29:45;9.73;;;5.30;;
72517;SDS011;60540;51.178;6.738;2024-03-08T12:32:11;12.02;;;5.65;;
72517;SDS011;60540;51.178;6.738;2024-03-08T12:34:55;12.45;;;6.82;;
72517;SDS011;60540;51.178;6.738;2024-03-08T12:37:39;11.38;;;5.95;;
72517;SDS011;60540;51.178;6.738;2024-03-08T12:40:28;10.60;;;5.28;;
72517;SDS011;60540;51.178;6.738;2024-03-08T12:43:13;12.20;;;6.00;;
72517;SDS011;60540;51.178;6.738;2024-03-08T12:45:59;13.18;;;5.60;;
72517;SDS011;60540;51.178;6.738;2024-03-08T12:48:43;10.52;;;5.47;;
72517;SDS011;60540;51.178;6.738;2024-03-08T12:51:31;11.30;;;6.65;;
72517;SDS011;60540;51.178;6.738;2024-03-08T12:54:17;9.60;;;5.93;;
72517;SDS011;60540;51.178;6.738;2024-03-08T12:57:01;10.23;;;6.07;;
72517;SDS011;60540;51.178;6.738;2024-03-08T12:59:47;10.57;;;6.00;;
72517;SDS011;60540;51.178;6.738;2024-03-08T13:02:31;11.07;;;5.35;;
72517;SDS011;60540;51.178;6.738;2024-03-08T13:05:15;9.00;;;5.63;;
72517;SDS011;60540;51.178;6.738;2024-03-08T13:08:00;10.73;;;5.40;;
72517;SDS011;60540;51.178;6.738;2024-03-08T13:10:44;8.85;;;5.22;;
72517;SDS011;60540;51.178;6.738;2024-03-08T13:13:29;11.02;;;5.47;;
72517;SDS011;60540;51.178;6.738;2024-03-08T13:16:13;10.63;;;5.25;;
72517;SDS011;60540;51.178;6.738;2024-03-08T13:19:01;11.82;;;5.75;;
72517;SDS011;60540;51.178;6.738;2024-03-08T13:21:45;8.80;;;5.63;;
72517;SDS011;60540;51.178;6.738;2024-03-08T13:24:33;8.75;;;5.05;;
72517;SDS011;60540;51.178;6.738;2024-03-08T13:27:20;9.35;;;5.93;;
72517;SDS011;60540;51.178;6.738;2024-03-08T13:30:06;9.18;;;5.07;;
72517;SDS011;60540;51.178;6.738;2024-03-08T13:32:51;10.45;;;5.55;;
72517;SDS011;60540;51.178;6.738;2024-03-08T13:35:36;9.00;;;5.15;;
72517;SDS011;60540;51.178;6.738;2024-03-08T13:38:21;9.70;;;5.22;;
72517;SDS011;60540;51.178;6.738;2024-03-08T13:41:06;10.40;;;5.68;;
72517;SDS011;60540;51.178;6.738;2024-03-08T13:43:50;11.18;;;5.60;;
72517;SDS011;60540;51.178;6.738;2024-03-08T13:46:35;10.82;;;6.40;;
72517;SDS011;60540;51.178;6.738;2024-03-08T13:49:21;11.60;;;5.88;;
72517;SDS011;60540;51.178;6.738;2024-03-08T13:54:49;16.17;;;7.00;;
72517;SDS011;60540;51.178;6.738;2024-03-08T13:57:35;9.77;;;5.38;;
72517;SDS011;60540;51.178;6.738;2024-03-08T14:00:19;8.38;;;4.93;;
72517;SDS011;60540;51.178;6.738;2024-03-08T14:03:08;9.32;;;5.20;;
72517;SDS011;60540;51.178;6.738;2024-03-08T14:05:54;9.07;;;5.07;;
72517;SDS011;60540;51.178;6.738;2024-03-08T14:08:39;8.88;;;4.95;;
72517;SDS011;60540;51.178;6.738;2024-03-08T14:11:24;9.85;;;5.43;;
72517;SDS011;60540;51.178;6.738;2024-03-08T14:14:08;11.65;;;5.55;;
72517;SDS011;60540;51.178;6.738;2024-03-08T14:16:53;8.70;;;4.88;;
72517;SDS011;60540;51.178;6.738;2024-03-08T14:19:38;8.70;;;5.30;;
72517;SDS011;60540;51.178;6.738;2024-03-08T14:22:22;11.88;;;5.95;;
72517;SDS011;60540;51.178;6.738;2024-03-08T14:25:07;12.18;;;5.97;;
72517;SDS011;60540;51.178;6.738;2024-03-08T14:28:00;10.88;;;5.82;;
72517;SDS011;60540;51.178;6.738;2024-03-08T14:30:50;8.43;;;5.30;;
72517;SDS011;60540;51.178;6.738;2024-03-08T14:33:36;10.38;;;5.63;;
72517;SDS011;60540;51.178;6.738;2024-03-08T14:36:21;10.20;;;5.60;;
72517;SDS011;60540;51.178;6.738;2024-03-08T14:39:06;11.00;;;5.82;;
72517;SDS011;60540;51.178;6.738;2024-03-08T14:41:57;9.00;;;4.88;;
72517;SDS011;60540;51.178;6.738;2024-03-08T14:47:32;9.73;;;5.53;;
72517;SDS011;60540;51.178;6.738;2024-03-08T14:50:18;10.70;;;5.80;;
72517;SDS011;60540;51.178;6.738;2024-03-08T14:53:03;11.50;;;7.05;;
72517;SDS011;60540;51.178;6.738;2024-03-08T14:55:49;11.40;;;5.93;;
72517;SDS011;60540;51.178;6.738;2024-03-08T14:58:35;11.30;;;6.07;;
72517;SDS011;60540;51.178;6.738;2024-03-08T15:01:19;9.77;;;5.20;;
72517;SDS011;60540;51.178;6.738;2024-03-08T15:04:12;11.55;;;6.03;;
72517;SDS011;60540;51.178;6.738;2024-03-08T15:06:56;14.77;;;8.55;;
72517;SDS011;60540;51.178;6.738;2024-03-08T15:09:41;10.25;;;5.85;;
72517;SDS011;60540;51.178;6.738;2024-03-08T15:12:27;9.45;;;5.18;;
72517;SDS011;60540;51.178;6.738;2024-03-08T15:15:13;10.77;;;5.65;;
72517;SDS011;60540;51.178;6.738;2024-03-08T15:18:02;9.95;;;5.90;;
72517;SDS011;60540;51.178;6.738;2024-03-08T15:20:47;12.90;;;6.30;;
72517;SDS011;60540;51.178;6.738;2024-03-08T15:23:33;10.70;;;5.88;;
72517;SDS011;60540;51.178;6.738;2024-03-08T15:26:20;10.93;;;5.72;;
72517;SDS011;60540;51.178;6.738;2024-03-08T15:29:04;11.98;;;6.88;;
72517;SDS011;60540;51.178;6.738;2024-03-08T15:31:49;12.35;;;6.60;;
72517;SDS011;60540;51.178;6.738;2024-03-08T15:34:35;11.70;;;6.20;;
72517;SDS011;60540;51.178;6.738;2024-03-08T15:37:22;11.52;;;7.10;;
72517;SDS011;60540;51.178;6.738;2024-03-08T15:40:10;10.82;;;7.00;;
72517;SDS011;60540;51.178;6.738;2024-03-08T15:43:04;10.55;;;5.93;;
72517;SDS011;60540;51.178;6.738;2024-03-08T15:45:49;11.75;;;6.72;;
72517;SDS011;60540;51.178;6.738;2024-03-08T15:48:34;9.80;;;5.72;;
72517;SDS011;60540;51.178;6.738;2024-03-08T15:51:21;10.25;;;6.22;;
72517;SDS011;60540;51.178;6.738;2024-03-08T15:54:06;11.50;;;5.82;;
72517;SDS011;60540;51.178;6.738;2024-03-08T15:56:51;11.45;;;6.50;;
72517;SDS011;60540;51.178;6.738;2024-03-08T15:59:35;12.18;;;6.38;;
72517;SDS011;60540;51.178;6.738;2024-03-08T16:02:21;11.20;;;6.15;;
72517;SDS011;60540;51.178;6.738;2024-03-08T16:05:07;12.95;;;6.78;;
72517;SDS011;60540;51.178;6.738;2024-03-08T16:07:52;11.48;;;6.65;;
72517;SDS011;60540;51.178;6.738;2024-03-08T16:10:37;11.07;;;6.53;;
72517;SDS011;60540;51.178;6.738;2024-03-08T16:13:22;11.32;;;6.50;;
72517;SDS011;60540;51.178;6.738;2024-03-08T16:16:07;10.30;;;5.45;;
72517;SDS011;60540;51.178;6.738;2024-03-08T16:18:52;11.77;;;6.60;;
72517;SDS011;60540;51.178;6.738;2024-03-08T16:21:37;10.88;;;6.28;;
72517;SDS011;60540;51.178;6.738;2024-03-08T16:24:21;12.25;;;5.72;;
72517;SDS011;60540;51.178;6.738;2024-03-08T16:27:05;11.88;;;6.13;;
72517;SDS011;60540;51.178;6.738;2024-03-08T16:29:49;11.88;;;6.47;;
72517;SDS011;60540;51.178;6.738;2024-03-08T16:32:36;10.40;;;5.28;;
72517;SDS011;60540;51.178;6.738;2024-03-08T16:35:21;13.70;;;6.47;;
72517;SDS011;60540;51.178;6.738;2024-03-08T16:38:05;9.63;;;5.13;;
72517;SDS011;60540;51.178;6.738;2024-03-08T16:40:51;11.55;;;5.63;;
72517;SDS011;60540;51.178;6.738;2024-03-08T16:43:36;13.00;;;5.63;;
72517;SDS011;60540;51.178;6.738;2024-03-08T16:46:22;13.48;;;6.22;;
72517;SDS011;60540;51.178;6.738;2024-03-08T16:49:06;12.30;;;5.55;;
72517;SDS011;60540;51.178;6.738;2024-03-08T16:51:50;12.40;;;6.43;;
72517;SDS011;60540;51.178;6.738;2024-03-08T16:54:34;10.55;;;5.68;;